KEDE/EDE METAR and TAF weather

Enter ICAO airport designator
Station Type Date Time Source
KEDE METAR 2019/06/26 22:20 UTC NOAA

KEDE 262220Z AUTO 09007KT 10SM CLR 30/19 A3009 RMK AO2 T02950185


Station Type Date Time Source
KEDE Decoded METAR 2019/06/26 22:20 UTC NOAA

Edenton, Northeastern Regional Airport, NC, United States (KEDE) 36-01-40N 076-34-02W
Jun 26, 2019 - 06:20 PM EDT / 2019.06.26 2220 UTC
Wind: from the E (090 degrees) at 8 MPH (7 KT):0
Visibility: 10 mile(s):0
Sky conditions: clear
Temperature: 85.1 F (29.5 C)
Dew Point: 65.3 F (18.5 C)
Relative Humidity: 51%
Pressure (altimeter): 30.09 in. Hg (1018 hPa)
ob: KEDE 262220Z AUTO 09007KT 10SM CLR 30/19 A3009 RMK AO2 T02950185
cycle: 22

Station Type Date Time Source
KEDE TAF UTC NOAA

Error!

Example: see airport list